Time;durP1;ratioP1;P1;durP2;ratioP2;P2;SDS_P1;SDS_P2;PMS_P1;PMS_P2;Temp;Humidity;BMP_temperature;BMP_pressure;BME280_temperature;BME280_humidity;BME280_pressure;Samples;Min_cycle;Max_cycle;Signal;HPM_P1;HPM_P2
2022/12/14 00:01:25;;;;;;;6.55;2.75;;;;;;;2.34;86.20;100014.09;5005171;28;20559;-42
2022/12/14 00:03:53;;;;;;;13.70;3.38;;;;;;;2.33;86.39;100012.50;5027697;28;20040;-43
2022/12/14 00:06:22;;;;;;;11.30;3.95;;;;;;;2.33;86.15;100017.97;5006351;28;20049;-42
2022/12/14 00:08:51;;;;;;;9.68;3.22;;;;;;;2.30;86.16;100015.84;5027182;28;20045;-42
2022/12/14 00:11:21;;;;;;;9.80;4.72;;;;;;;2.28;85.75;100015.31;5027956;28;20075;-42
2022/12/14 00:13:56;;;;;;;10.93;5.47;;;;;;;2.28;86.32;100015.31;5028145;28;20044;-42
2022/12/14 00:16:25;;;;;;;5.80;3.92;;;;;;;2.27;85.85;100013.72;5027846;28;20495;-43
2022/12/14 00:18:55;;;;;;;6.65;3.47;;;;;;;2.28;86.08;100012.59;5027935;28;20407;-48
2022/12/14 00:21:23;;;;;;;6.40;3.63;;;;;;;2.30;85.78;100011.16;5028035;28;20080;-42
2022/12/14 00:23:51;;;;;;;9.13;3.90;;;;;;;2.33;86.17;100015.25;5027416;28;20096;-42
2022/12/14 00:26:23;;;;;;;7.15;3.10;;;;;;;2.37;85.97;100017.03;5027882;28;20053;-49
2022/12/14 00:28:52;;;;;;;8.40;3.35;;;;;;;2.41;85.80;100014.47;5029090;28;20053;-42
2022/12/14 00:31:19;;;;;;;5.88;3.13;;;;;;;2.42;85.87;100018.84;5028088;28;20072;-46
2022/12/14 00:33:47;;;;;;;7.07;3.42;;;;;;;2.43;85.65;100012.25;5026883;28;20053;-42
2022/12/14 00:36:13;;;;;;;7.65;4.60;;;;;;;2.43;85.84;100010.34;5027024;28;20045;-44
2022/12/14 00:38:40;;;;;;;8.77;3.25;;;;;;;2.44;85.95;100008.41;5027697;28;20056;-42
2022/12/14 00:41:09;;;;;;;7.30;3.83;;;;;;;2.45;85.79;100018.22;5027402;28;20049;-43
2022/12/14 00:43:35;;;;;;;7.20;3.83;;;;;;;2.46;85.82;100014.38;5026564;28;20049;-43
2022/12/14 00:46:02;;;;;;;6.63;3.95;;;;;;;2.46;86.02;100011.66;5039850;28;20053;-42
2022/12/14 00:48:30;;;;;;;8.32;4.38;;;;;;;2.47;85.84;100013.25;5027637;28;20057;-42
2022/12/14 00:50:58;;;;;;;5.75;3.35;;;;;;;2.44;86.00;100011.13;5026326;28;20045;-44
2022/12/14 00:53:25;;;;;;;6.78;3.53;;;;;;;2.44;85.76;100013.84;5023485;28;20076;-42
2022/12/14 00:55:52;;;;;;;6.05;3.40;;;;;;;2.42;85.88;100007.91;5009084;28;20636;-49
2022/12/14 00:58:21;;;;;;;6.97;4.43;;;;;;;2.40;85.76;100010.16;5026288;28;20064;-43
2022/12/14 01:01:01;;;;;;;8.27;3.80;;;;;;;2.36;85.63;100017.31;5027555;28;20084;-42
2022/12/14 01:03:28;;;;;;;7.43;3.50;;;;;;;2.32;86.09;100011.69;5024409;28;20410;-42
2022/12/14 01:05:55;;;;;;;10.27;3.78;;;;;;;2.33;85.62;100017.97;5024294;28;20049;-45
2022/12/14 01:08:23;;;;;;;9.98;4.15;;;;;;;2.30;85.91;100011.16;5023015;28;20057;-42
2022/12/14 01:10:50;;;;;;;8.32;3.95;;;;;;;2.27;85.77;100021.94;5025435;28;20051;-42
2022/12/14 01:13:17;;;;;;;9.27;3.88;;;;;;;2.22;85.58;100020.13;5026260;28;20060;-42
2022/12/14 01:15:44;;;;;;;7.00;4.30;;;;;;;2.15;85.78;100013.44;5022976;28;20049;-42
2022/12/14 01:18:11;;;;;;;7.28;4.53;;;;;;;2.11;85.52;100021.47;5024913;28;20045;-44
2022/12/14 01:20:38;;;;;;;8.90;4.63;;;;;;;2.08;85.72;100029.44;5024508;28;20104;-42
2022/12/14 01:23:05;;;;;;;6.47;3.35;;;;;;;2.02;85.48;100033.41;5025805;28;20041;-42
2022/12/14 01:25:32;;;;;;;7.45;3.75;;;;;;;1.96;85.85;100026.44;5026771;28;20069;-42
2022/12/14 01:27:58;;;;;;;6.85;3.33;;;;;;;1.91;85.59;100029.28;5026971;28;20389;-42
2022/12/14 01:30:25;;;;;;;6.35;3.38;;;;;;;1.85;85.80;100028.59;5027171;28;20049;-45
2022/12/14 01:32:52;;;;;;;6.93;3.17;;;;;;;1.81;85.83;100031.09;5025986;28;20057;-42
2022/12/14 01:35:19;;;;;;;5.00;2.88;;;;;;;1.76;85.68;100033.94;5026810;28;20049;-43
2022/12/14 01:37:45;;;;;;;5.72;3.13;;;;;;;1.72;85.50;100043.84;5026699;28;20057;-41
2022/12/14 01:40:15;;;;;;;6.30;2.85;;;;;;;1.65;85.07;100035.25;5026933;28;20076;-44
2022/12/14 01:42:42;;;;;;;3.50;2.00;;;;;;;1.59;85.06;100033.72;5025603;28;20052;-46
2022/12/14 01:45:20;;;;;;;2.90;2.08;;;;;;;1.52;85.25;100038.78;5025767;28;20060;-42
2022/12/14 01:48:00;;;;;;;6.22;1.77;;;;;;;1.50;85.38;100043.75;5030488;28;20458;-41
2022/12/14 01:50:41;;;;;;;4.00;1.45;;;;;;;1.46;85.18;100040.00;5013067;28;20053;-43
2022/12/14 01:53:12;;;;;;;2.78;1.27;;;;;;;1.43;85.20;100048.00;5024604;28;20502;-42
2022/12/14 01:55:43;;;;;;;3.80;1.55;;;;;;;1.41;84.97;100053.72;5027634;28;20049;-42
2022/12/14 01:58:21;;;;;;;2.33;1.50;;;;;;;1.40;85.01;100057.59;5027667;28;20057;-45
2022/12/14 02:00:51;;;;;;;9.90;1.88;;;;;;;1.37;85.03;100052.72;5028132;28;20049;-46
2022/12/14 02:03:29;;;;;;;4.90;1.63;;;;;;;1.37;84.75;100058.19;5025977;28;20387;-46
2022/12/14 02:06:18;;;;;;;3.80;1.85;;;;;;;1.41;85.14;100051.00;5008513;28;20089;-42
2022/12/14 02:08:47;;;;;;;4.93;2.17;;;;;;;1.43;84.77;100058.91;5027661;28;20061;-42
2022/12/14 02:11:22;;;;;;;5.95;1.80;;;;;;;1.43;84.59;100059.69;5029921;28;20044;-42
2022/12/14 02:13:49;;;;;;;3.60;2.08;;;;;;;1.40;84.33;100068.50;5027079;28;20045;-42
2022/12/14 02:16:16;;;;;;;5.13;1.92;;;;;;;1.40;84.39;100071.22;5026834;28;20050;-43
2022/12/14 02:18:43;;;;;;;4.45;2.33;;;;;;;1.42;84.57;100068.19;5022404;28;20442;-42
2022/12/14 02:21:33;;;;;;;4.05;2.15;;;;;;;1.46;84.66;100061.81;5022575;28;20054;-42
2022/12/14 02:24:11;;;;;;;4.07;2.22;;;;;;;1.49;84.64;100055.75;5024988;28;20061;-42
2022/12/14 02:27:25;;;;;;;3.55;2.00;;;;;;;1.51;84.38;100058.97;5026154;28;20403;-41
2022/12/14 02:29:57;;;;;;;4.75;2.35;;;;;;;1.53;84.51;100056.78;5027179;28;20049;-42
2022/12/14 02:32:50;;;;;;;4.32;1.75;;;;;;;1.54;84.23;100063.03;5026369;28;20046;-42
2022/12/14 02:35:50;;;;;;;3.22;2.15;;;;;;;1.54;84.14;100063.03;4998266;28;20045;-42
2022/12/14 02:38:37;;;;;;;4.28;2.75;;;;;;;1.51;84.06;100063.66;5028565;28;20136;-42
2022/12/14 02:41:28;;;;;;;3.95;2.33;;;;;;;1.47;84.35;100068.09;5024363;28;20053;-43
2022/12/14 02:44:03;;;;;;;3.58;2.15;;;;;;;1.46;84.15;100071.91;5027738;28;20096;-42
2022/12/14 02:47:02;;;;;;;4.82;2.00;;;;;;;1.47;84.33;100057.16;5027536;28;20676;-43
2022/12/14 02:49:51;;;;;;;5.82;2.17;;;;;;;1.47;84.11;100063.44;5021354;28;20076;-42
2022/12/14 02:52:46;;;;;;;3.88;1.88;;;;;;;1.49;84.11;100061.22;5022442;28;20045;-42
2022/12/14 02:55:20;;;;;;;3.85;2.25;;;;;;;1.50;84.34;100064.75;5029217;28;20049;-43
2022/12/14 02:57:56;;;;;;;5.47;2.63;;;;;;;1.49;84.40;100055.75;5024246;28;20053;-46
2022/12/14 03:02:59;;;;;;;3.92;1.88;;;;;;;1.52;84.12;100054.34;5044259;23;20293;-41
2022/12/14 03:05:27;;;;;;;8.73;2.10;;;;;;;1.54;83.97;100052.94;5045222;28;20051;-41
2022/12/14 03:07:58;;;;;;;4.25;2.10;;;;;;;1.53;84.00;100054.06;5048872;28;20049;-42
2022/12/14 03:10:50;;;;;;;6.20;2.10;;;;;;;1.54;84.08;100054.84;5045401;28;20900;-43
2022/12/14 03:13:35;;;;;;;4.38;1.58;;;;;;;1.53;83.76;100066.88;5046963;28;20056;-42
2022/12/14 03:16:15;;;;;;;6.78;1.17;;;;;;;1.53;83.80;100062.25;5046780;28;20041;-42
2022/12/14 03:18:57;;;;;;;6.88;1.92;;;;;;;1.51;83.94;100064.44;5046411;28;20512;-43
2022/12/14 03:21:30;;;;;;;3.38;2.03;;;;;;;1.51;83.85;100058.97;5043882;28;20060;-45
2022/12/14 03:24:01;;;;;;;4.90;1.60;;;;;;;1.50;83.68;100062.84;5046589;28;20041;-41
2022/12/14 03:26:33;;;;;;;4.35;2.08;;;;;;;1.49;83.64;100061.22;5045438;28;20056;-41
2022/12/14 03:29:12;;;;;;;5.85;1.42;;;;;;;1.49;83.59;100052.22;5044383;28;20049;-41
2022/12/14 03:31:46;;;;;;;2.15;1.30;;;;;;;1.48;83.79;100058.81;5040813;28;20095;-47
2022/12/14 03:34:19;;;;;;;5.47;1.20;;;;;;;1.48;83.54;100059.63;5042522;28;20156;-43
2022/12/14 03:37:10;;;;;;;4.90;1.38;;;;;;;1.49;84.10;100050.31;5050217;28;20060;-42
2022/12/14 03:39:39;;;;;;;4.05;1.05;;;;;;;1.49;83.86;100057.66;5047454;28;20048;-42
2022/12/14 03:42:34;;;;;;;3.00;1.35;;;;;;;1.50;84.07;100062.84;5046198;28;20066;-42
2022/12/14 03:45:03;;;;;;;3.65;1.45;;;;;;;1.50;83.94;100056.56;5045634;28;20048;-43
2022/12/14 03:47:50;;;;;;;3.50;2.17;;;;;;;1.49;84.04;100060.41;5047046;28;20045;-46
2022/12/14 03:50:25;;;;;;;3.90;1.52;;;;;;;1.49;83.91;100060.41;5039556;28;20128;-41
2022/12/14 03:52:52;;;;;;;6.38;1.20;;;;;;;1.49;83.92;100063.13;5047836;28;20060;-42
2022/12/14 03:55:45;;;;;;;1.45;0.93;;;;;;;1.50;84.23;100051.94;5048477;28;20386;-41
2022/12/14 03:58:23;;;;;;;2.03;1.25;;;;;;;1.53;83.88;100050.50;5045457;28;20102;-41
2022/12/14 04:01:10;;;;;;;2.13;1.15;;;;;;;1.54;83.99;100052.94;5039632;28;20045;-41
2022/12/14 04:03:51;;;;;;;7.07;2.20;;;;;;;1.53;84.22;100062.25;5042094;28;20071;-42
2022/12/14 04:06:37;;;;;;;1.38;1.15;;;;;;;1.56;83.87;100061.59;5046277;28;20045;-42
2022/12/14 04:09:41;;;;;;;2.78;0.95;;;;;;;1.59;84.21;100071.91;5030736;28;20053;-41
2022/12/14 04:21:18;;;;;;;1.02;0.90;;;;;;;1.61;83.61;100080.63;5026761;28;20402;-41
2022/12/14 04:26:41;;;;;;;4.47;1.30;;;;;;;1.62;83.59;100082.22;5045688;28;20644;-43
2022/12/14 04:32:15;;;;;;;2.38;0.55;;;;;;;1.67;83.46;100068.50;5044650;28;20433;-41
2022/12/14 04:34:49;;;;;;;3.00;0.70;;;;;;;1.72;83.67;100078.53;5032173;28;20111;-42
2022/12/14 04:37:23;;;;;;;1.15;0.85;;;;;;;1.75;83.71;100086.06;5046591;28;20120;-41
2022/12/14 04:39:57;;;;;;;1.70;0.70;;;;;;;1.75;83.52;100075.97;5046358;28;20057;-42
2022/12/14 04:42:32;;;;;;;3.40;0.65;;;;;;;1.74;83.58;100081.75;5047462;28;20047;-41
2022/12/14 04:45:15;;;;;;;0.93;0.70;;;;;;;1.74;83.29;100089.94;5043902;28;20049;-41
2022/12/14 04:47:54;;;;;;;2.08;0.40;;;;;;;1.77;83.38;100083.88;5045773;28;20053;-43
2022/12/14 04:50:38;;;;;;;3.40;0.45;;;;;;;1.81;83.27;100087.59;5035648;28;20399;-41
2022/12/14 04:53:17;;;;;;;1.10;0.47;;;;;;;1.81;83.15;100082.97;5034671;28;20052;-41
2022/12/14 04:56:07;;;;;;;4.25;0.80;;;;;;;1.78;83.49;100086.28;5026186;28;20052;-43
2022/12/14 04:58:34;;;;;;;1.05;0.60;;;;;;;1.76;83.31;100074.88;5037721;28;20060;-41
2022/12/14 05:01:03;;;;;;;4.28;0.52;;;;;;;1.80;83.58;100089.50;5047396;28;20460;-41
2022/12/14 05:03:34;;;;;;;3.33;0.30;;;;;;;1.91;83.30;100089.34;5028215;28;20068;-41
2022/12/14 05:06:22;;;;;;;2.70;0.57;;;;;;;1.95;83.36;100080.22;5046834;28;20044;-44
2022/12/14 05:08:59;;;;;;;3.05;0.52;;;;;;;1.99;83.44;100085.88;5047248;28;20446;-42
2022/12/14 05:11:49;;;;;;;2.35;0.60;;;;;;;2.02;83.62;100091.53;5029352;28;20041;-41
2022/12/14 05:14:46;;;;;;;6.03;0.60;;;;;;;2.06;83.68;100092.56;5046066;28;20134;-43
2022/12/14 05:17:13;;;;;;;0.95;0.55;;;;;;;2.08;83.53;100084.06;5034082;28;20053;-42
2022/12/14 05:19:45;;;;;;;3.97;1.50;;;;;;;2.12;83.71;100085.06;5046764;28;20064;-41
2022/12/14 05:22:15;;;;;;;11.43;1.33;;;;;;;2.14;83.82;100082.84;5025355;28;20065;-41
2022/12/14 05:24:42;;;;;;;15.90;1.45;;;;;;;2.18;83.71;100083.84;5031701;28;20107;-42
2022/12/14 05:27:08;;;;;;;1.63;0.45;;;;;;;2.22;83.83;100087.59;5045709;28;20045;-41
2022/12/14 05:29:35;;;;;;;1.85;0.70;;;;;;;2.22;83.87;100087.59;5043811;28;20055;-49
2022/12/14 05:32:03;;;;;;;7.00;0.85;;;;;;;2.19;84.18;100086.28;5047108;28;20061;-42
2022/12/14 05:34:30;;;;;;;3.50;1.77;;;;;;;2.22;84.01;100079.38;5046458;28;20128;-42
2022/12/14 05:36:58;;;;;;;2.10;0.75;;;;;;;2.23;84.31;100084.53;5047185;28;20068;-42
2022/12/14 05:39:24;;;;;;;3.17;0.77;;;;;;;2.25;84.06;100087.75;5046403;28;20041;-41
2022/12/14 05:41:52;;;;;;;2.83;0.90;;;;;;;2.25;84.48;100095.16;5046551;28;20049;-42
2022/12/14 05:44:19;;;;;;;4.57;0.95;;;;;;;2.25;84.39;100092.44;5051802;28;20472;-41
2022/12/14 05:46:46;;;;;;;5.13;1.00;;;;;;;2.24;84.32;100101.72;5050960;28;20055;-43
2022/12/14 05:49:13;;;;;;;7.45;1.08;;;;;;;2.24;84.57;100094.34;5042031;28;20052;-42
2022/12/14 05:51:40;;;;;;;2.00;0.93;;;;;;;2.29;84.57;100104.34;5046690;28;20480;-42
2022/12/14 05:54:06;;;;;;;3.35;0.60;;;;;;;2.33;84.61;100091.72;5034557;28;20478;-42
2022/12/14 05:56:33;;;;;;;3.15;0.85;;;;;;;2.36;84.62;100097.34;5043895;28;20045;-42
2022/12/14 05:59:01;;;;;;;9.65;1.17;;;;;;;2.37;84.71;100096.25;5046906;28;20049;-42
2022/12/14 06:01:28;;;;;;;4.00;1.50;;;;;;;2.36;84.99;100097.34;5045077;28;20148;-41
2022/12/14 06:03:56;;;;;;;5.05;1.30;;;;;;;2.39;85.02;100096.75;5046148;28;20052;-42
2022/12/14 06:06:22;;;;;;;3.38;0.70;;;;;;;2.40;84.64;100097.56;5047350;28;20426;-42
2022/12/14 06:08:49;;;;;;;6.57;1.08;;;;;;;2.41;84.98;100099.16;5048156;28;20479;-42
2022/12/14 06:11:19;;;;;;;2.85;0.77;;;;;;;2.40;84.79;100100.28;5052035;28;20041;-42
2022/12/14 06:13:47;;;;;;;10.00;1.05;;;;;;;2.38;84.72;100111.50;5048121;28;20069;-45
2022/12/14 06:16:20;;;;;;;5.63;1.05;;;;;;;2.39;84.85;100101.41;5045593;28;20056;-42
2022/12/14 06:18:49;;;;;;;3.78;1.08;;;;;;;2.42;85.13;100109.78;5047524;28;20038;-42
2022/12/14 06:21:17;;;;;;;4.32;1.40;;;;;;;2.43;84.73;100110.59;5046931;28;20044;-42
2022/12/14 06:23:45;;;;;;;3.03;0.93;;;;;;;2.42;84.46;100106.25;5048175;28;20053;-41
2022/12/14 06:26:13;;;;;;;4.25;1.20;;;;;;;2.38;84.70;100108.00;5026943;28;20059;-41
2022/12/14 06:28:40;;;;;;;10.00;2.78;;;;;;;2.35;84.75;100116.78;5047137;28;20060;-42
2022/12/14 06:31:12;;;;;;;5.68;1.08;;;;;;;2.29;84.67;100118.00;5026900;28;21379;-41
2022/12/14 06:33:39;;;;;;;2.15;0.75;;;;;;;2.24;84.72;100120.84;5036550;28;20041;-41
2022/12/14 06:36:06;;;;;;;6.38;0.77;;;;;;;2.16;84.72;100107.91;5049021;28;20128;-41
2022/12/14 06:38:34;;;;;;;5.18;1.00;;;;;;;2.11;84.48;100117.03;5051526;28;20053;-42
2022/12/14 06:41:07;;;;;;;4.95;0.80;;;;;;;2.05;84.58;100114.69;5032230;28;20049;-43
2022/12/14 06:43:33;;;;;;;3.95;0.88;;;;;;;2.02;84.75;100118.03;5052069;28;20375;-41
2022/12/14 06:46:00;;;;;;;6.18;0.80;;;;;;;2.01;84.24;100121.88;5055794;28;20036;-46
2022/12/14 06:48:27;;;;;;;4.82;1.60;;;;;;;2.00;84.63;100117.53;5033523;28;20387;-42
2022/12/14 06:50:59;;;;;;;3.72;0.60;;;;;;;1.98;84.24;100120.56;5050636;28;20044;-41
2022/12/14 06:53:26;;;;;;;10.05;1.15;;;;;;;1.97;84.15;100121.66;5051510;28;20372;-42
2022/12/14 06:55:53;;;;;;;4.25;1.30;;;;;;;1.98;83.80;100127.94;5050269;28;20090;-42
2022/12/14 06:58:20;;;;;;;1.90;0.60;;;;;;;1.97;83.83;100126.31;5050985;28;20045;-42
2022/12/14 07:00:46;;;;;;;5.88;1.00;;;;;;;1.96;83.90;100135.63;5044097;28;20395;-42
2022/12/14 07:03:13;;;;;;;2.67;0.70;;;;;;;1.96;83.42;100130.19;5045576;28;20045;-42
2022/12/14 07:05:40;;;;;;;2.00;0.70;;;;;;;1.97;83.38;100129.03;5049927;28;20056;-48
2022/12/14 07:08:14;;;;;;;3.38;0.68;;;;;;;1.96;83.47;100133.69;5033358;28;20053;-42
2022/12/14 07:10:42;;;;;;;0.90;0.43;;;;;;;1.97;83.32;100137.22;5050985;28;20045;-47
2022/12/14 07:13:09;;;;;;;2.65;0.60;;;;;;;1.98;83.39;100138.88;5050473;28;20471;-42
2022/12/14 07:15:36;;;;;;;2.85;0.70;;;;;;;1.97;82.86;100137.22;5045124;28;20048;-46
2022/12/14 07:18:03;;;;;;;3.20;0.82;;;;;;;1.96;83.21;100135.63;5051932;28;20579;-42
2022/12/14 07:20:30;;;;;;;3.42;0.68;;;;;;;1.96;83.18;100135.63;5050539;28;20458;-42
2022/12/14 07:22:56;;;;;;;3.17;0.50;;;;;;;1.99;83.30;100143.19;5050281;28;20099;-42
2022/12/14 07:25:23;;;;;;;1.88;0.55;;;;;;;2.03;83.20;100142.31;5048642;28;20055;-42
2022/12/14 07:27:50;;;;;;;4.05;1.23;;;;;;;2.05;83.08;100150.19;5032429;28;20048;-42
2022/12/14 07:30:17;;;;;;;3.25;1.25;;;;;;;2.09;83.02;100145.75;5049219;28;20052;-42
2022/12/14 07:32:44;;;;;;;3.00;0.80;;;;;;;2.09;83.00;100148.47;5042582;28;21040;-43
2022/12/14 07:35:11;;;;;;;3.00;1.02;;;;;;;2.09;83.28;100156.66;5055062;28;20037;-43
2022/12/14 07:37:42;;;;;;;5.53;1.02;;;;;;;2.08;82.85;100152.31;5026296;28;20449;-42
2022/12/14 07:40:14;;;;;;;;;;;;;;;2.07;82.97;100158.88;5045115;28;20047;-45
2022/12/14 07:42:41;;;;;;;10.43;1.58;;;;;;;2.08;83.52;100163.22;5049938;28;19952;-44
2022/12/14 07:45:08;;;;;;;7.63;1.45;;;;;;;2.09;83.49;100156.66;5056470;28;20044;-43
2022/12/14 07:47:35;;;;;;;5.57;0.90;;;;;;;2.09;83.21;100153.94;5048967;28;20541;-43
2022/12/14 07:50:01;;;;;;;2.08;0.65;;;;;;;2.09;83.48;100157.44;5049162;28;20049;-43
2022/12/14 07:52:28;;;;;;;3.63;1.80;;;;;;;2.10;83.62;100163.72;5060032;28;20044;-43
2022/12/14 07:55:03;;;;;;;2.40;0.82;;;;;;;2.11;83.15;100163.44;5048948;28;20049;-44
2022/12/14 07:57:29;;;;;;;11.45;1.75;;;;;;;2.10;83.37;100174.66;5047237;28;20478;-43
2022/12/14 07:59:56;;;;;;;5.30;1.70;;;;;;;2.08;83.26;100177.69;5048209;28;20044;-43
2022/12/14 08:02:23;;;;;;;1.95;1.10;;;;;;;2.08;83.70;100160.50;5038036;28;20061;-40
2022/12/14 08:04:50;;;;;;;10.52;1.58;;;;;;;2.08;83.79;100182.34;5034546;28;20094;-41
2022/12/14 08:07:17;;;;;;;1.98;0.55;;;;;;;2.10;83.85;100180.09;5046261;28;20451;-40
2022/12/14 08:09:44;;;;;;;10.15;0.98;;;;;;;2.09;83.44;100181.25;5060306;28;20037;-42
2022/12/14 08:12:11;;;;;;;7.32;0.65;;;;;;;2.08;83.78;100185.06;5049609;28;20055;-40
2022/12/14 08:14:37;;;;;;;4.32;0.70;;;;;;;2.08;83.63;100193.25;5047301;28;20045;-42
2022/12/14 08:17:04;;;;;;;13.48;1.45;;;;;;;2.05;83.47;100189.22;5043824;28;20056;-45
2022/12/14 08:19:31;;;;;;;3.83;0.98;;;;;;;2.03;83.41;100194.19;5040304;28;20055;-43
2022/12/14 08:21:57;;;;;;;18.20;4.47;;;;;;;2.00;83.55;100189.31;5039451;28;20041;-44
2022/12/14 08:24:24;;;;;;;5.45;1.23;;;;;;;1.99;83.30;100205.97;5046257;28;20067;-40
2022/12/14 08:26:51;;;;;;;0.85;0.73;;;;;;;1.96;83.36;100201.16;5043148;28;20044;-42
2022/12/14 08:29:20;;;;;;;8.60;2.20;;;;;;;1.95;83.24;100210.44;5044245;28;20387;-41
2022/12/14 08:31:47;;;;;;;1.60;0.80;;;;;;;1.92;83.49;100211.84;5043053;28;20539;-42
2022/12/14 08:34:20;;;;;;;4.18;0.90;;;;;;;1.94;83.51;100215.06;5048207;28;20057;-42
2022/12/14 08:36:47;;;;;;;1.90;0.80;;;;;;;1.96;83.71;100214.78;5048230;28;20076;-40
2022/12/14 08:39:14;;;;;;;2.75;0.95;;;;;;;1.97;83.25;100214.47;5046654;28;20047;-47
2022/12/14 08:41:41;;;;;;;2.08;0.80;;;;;;;2.00;83.50;100213.06;5043102;28;20033;-47
2022/12/14 08:44:08;;;;;;;8.13;1.35;;;;;;;2.02;83.40;100216.31;5046032;28;20045;-48
2022/12/14 08:46:36;;;;;;;4.68;0.98;;;;;;;2.03;83.51;100224.22;5023427;28;20038;-46
2022/12/14 08:49:03;;;;;;;2.47;0.93;;;;;;;2.04;83.64;100219.56;5034268;28;20555;-41
2022/12/14 08:51:30;;;;;;;8.10;1.00;;;;;;;2.02;83.53;100233.50;5028205;28;20056;-42
2022/12/14 08:53:57;;;;;;;8.43;1.50;;;;;;;2.01;83.59;100231.91;5025714;28;20423;-41
2022/12/14 08:56:26;;;;;;;11.85;1.42;;;;;;;2.01;83.30;100240.09;5046787;28;20041;-42
2022/12/14 08:58:53;;;;;;;5.38;0.95;;;;;;;2.01;83.15;100234.63;5047036;28;20060;-41
2022/12/14 09:01:22;;;;;;;1.98;0.70;;;;;;;2.01;83.04;100242.00;5044554;28;20176;-44
2022/12/14 09:04:02;;;;;;;3.45;0.98;;;;;;;2.01;83.30;100242.81;5045152;28;20060;-41
2022/12/14 09:06:28;;;;;;;3.80;1.00;;;;;;;2.04;82.97;100246.88;5047138;28;20037;-42
2022/12/14 09:08:56;;;;;;;2.17;0.88;;;;;;;2.07;83.19;100243.50;5047467;28;20048;-42
2022/12/14 09:11:23;;;;;;;6.95;1.13;;;;;;;2.11;82.97;100252.72;5037198;28;20045;-43
2022/12/14 09:13:53;;;;;;;4.90;1.20;;;;;;;2.13;83.02;100255.97;5046807;28;20045;-43
2022/12/14 09:16:22;;;;;;;3.55;0.82;;;;;;;2.17;82.68;100254.25;5044201;28;20861;-44
2022/12/14 09:18:49;;;;;;;7.25;0.95;;;;;;;2.21;82.96;100258.00;5047340;28;20128;-43
2022/12/14 09:21:17;;;;;;;5.32;1.20;;;;;;;2.23;82.88;100259.31;5047311;28;20087;-47
2022/12/14 09:23:44;;;;;;;3.35;1.00;;;;;;;2.26;82.73;100260.63;5048207;28;20128;-43
2022/12/14 09:26:17;;;;;;;3.25;1.17;;;;;;;2.28;82.89;100259.22;5045316;28;20141;-42
2022/12/14 09:28:50;;;;;;;5.28;1.90;;;;;;;2.30;82.66;100261.66;5034197;28;20095;-45
2022/12/14 09:31:20;;;;;;;3.20;0.60;;;;;;;2.30;82.60;100275.31;5051142;28;20398;-42
2022/12/14 09:33:48;;;;;;;1.02;0.50;;;;;;;2.27;82.45;100273.19;5047952;28;20044;-43
2022/12/14 09:36:18;;;;;;;2.47;0.80;;;;;;;2.23;82.40;100278.44;5028178;28;20040;-42
2022/12/14 09:38:45;;;;;;;4.43;0.65;;;;;;;2.21;82.36;100280.66;5046407;28;20041;-42
2022/12/14 09:41:29;;;;;;;3.05;0.55;;;;;;;2.19;82.58;100284.81;5047074;28;20033;-42
2022/12/14 09:44:35;;;;;;;1.92;0.68;;;;;;;2.17;82.28;100284.31;5039664;28;20136;-48
2022/12/14 09:47:17;;;;;;;5.13;1.08;;;;;;;2.15;82.16;100283.78;4984396;28;20137;-44
2022/12/14 09:50:00;;;;;;;1.90;0.70;;;;;;;2.12;82.30;100287.13;4984212;28;20042;-47
2022/12/14 09:52:34;;;;;;;4.82;0.73;;;;;;;2.08;82.50;100292.38;5024343;28;20048;-43
2022/12/14 09:55:13;;;;;;;6.88;0.60;;;;;;;2.05;82.67;100292.16;5045510;28;20052;-42
2022/12/14 09:57:42;;;;;;;5.40;1.38;;;;;;;2.02;82.63;100290.00;5045567;28;20085;-42
2022/12/14 10:00:14;;;;;;;3.08;1.23;;;;;;;2.01;82.34;100296.59;5030907;28;20052;-43
2022/12/14 10:03:15;;;;;;;3.22;0.85;;;;;;;2.00;82.33;100298.50;5038163;28;20049;-43
2022/12/14 10:06:00;;;;;;;2.65;0.95;;;;;;;1.99;82.68;100299.59;5024772;28;20048;-46
2022/12/14 10:08:40;;;;;;;6.68;0.93;;;;;;;2.00;82.50;100311.34;5044058;28;20045;-46
2022/12/14 10:11:49;;;;;;;3.78;1.23;;;;;;;2.00;82.67;100322.25;5017881;28;20045;-50
2022/12/14 10:14:18;;;;;;;5.63;2.15;;;;;;;1.99;82.42;100315.16;5015674;28;20071;-46
2022/12/14 10:17:25;;;;;;;5.03;1.08;;;;;;;1.97;82.75;100315.47;5015638;28;20908;-44
2022/12/14 10:19:54;;;;;;;3.42;1.20;;;;;;;1.99;82.60;100312.44;5048341;28;20045;-46
2022/12/14 10:22:27;;;;;;;6.03;0.73;;;;;;;1.98;nan;100319.03;5051476;28;20041;-43
2022/12/14 10:25:05;;;;;;;7.20;0.75;;;;;;;1.97;82.71;100328.31;5050696;28;20437;-47
2022/12/14 10:27:34;;;;;;;3.55;1.00;;;;;;;1.97;82.92;100333.78;5050899;28;20074;-43
2022/12/14 10:30:20;;;;;;;2.85;1.42;;;;;;;2.01;82.46;100329.34;5054434;28;20064;-44
2022/12/14 10:32:55;;;;;;;4.97;1.70;;;;;;;2.08;82.89;100324.31;5050179;28;20056;-43
2022/12/14 10:35:34;;;;;;;4.65;0.90;;;;;;;2.11;82.78;100334.63;5050605;28;20115;-43
2022/12/14 10:38:15;;;;;;;8.00;1.20;;;;;;;2.13;82.71;100326.94;5051025;28;20106;-43
2022/12/14 10:40:48;;;;;;;4.93;0.80;;;;;;;2.13;82.73;100335.97;5039037;28;20053;-47
2022/12/14 10:43:46;;;;;;;5.50;1.20;;;;;;;2.13;82.58;100348.81;5042022;28;20136;-45
2022/12/14 10:46:36;;;;;;;2.90;1.20;;;;;;;2.10;82.65;100342.00;5029817;28;20454;-42
2022/12/14 10:49:18;;;;;;;4.03;1.17;;;;;;;2.11;82.83;100337.38;5031444;28;20104;-43
2022/12/14 10:52:00;;;;;;;9.05;1.52;;;;;;;2.09;82.61;100345.84;5049896;28;20048;-48
2022/12/14 10:54:31;;;;;;;;;;;;;;;2.05;82.56;100347.56;5028967;28;20057;-45
2022/12/14 10:56:57;;;;;;;3.40;1.08;;;;;;;1.99;82.38;100342.47;5047852;28;20392;-43
2022/12/14 10:59:27;;;;;;;4.63;1.70;;;;;;;1.93;82.30;100347.22;5052281;28;20442;-43
2022/12/14 11:02:08;;;;;;;7.88;0.88;;;;;;;1.89;82.25;100345.38;5047735;28;20106;-44
2022/12/14 11:04:38;;;;;;;3.75;1.00;;;;;;;1.84;82.16;100349.81;5047826;28;20098;-43
2022/12/14 11:07:12;;;;;;;8.02;2.55;;;;;;;1.81;82.17;100344.94;5048716;28;20079;-43
2022/12/14 11:09:39;;;;;;;8.75;3.33;;;;;;;1.87;82.33;100351.16;5049023;28;20490;-43
2022/12/14 11:12:16;;;;;;;8.52;2.35;;;;;;;2.01;82.47;100349.28;5045734;28;20500;-44
2022/12/14 11:15:22;;;;;;;8.38;2.97;;;;;;;2.25;82.51;100352.66;5047747;28;20048;-43
2022/12/14 11:18:03;;;;;;;6.03;2.05;;;;;;;2.50;81.88;100354.16;5039315;28;20057;-43
2022/12/14 11:20:32;;;;;;;4.88;1.13;;;;;;;2.63;81.44;100364.28;5032522;28;20072;-43
2022/12/14 11:23:34;;;;;;;7.50;1.48;;;;;;;2.72;81.29;100365.22;5048798;28;20128;-50
2022/12/14 11:26:05;;;;;;;4.40;1.80;;;;;;;2.80;81.51;100366.44;5031637;28;20157;-44
2022/12/14 11:28:47;;;;;;;2.63;1.05;;;;;;;2.87;81.25;100358.63;5047827;28;20069;-44
2022/12/14 11:31:19;;;;;;;8.93;1.08;;;;;;;2.90;81.46;100377.16;5040455;28;20053;-51
2022/12/14 11:33:55;;;;;;;3.13;0.68;;;;;;;2.86;81.16;100370.69;5048027;28;20052;-43
2022/12/14 11:36:28;;;;;;;3.28;1.67;;;;;;;2.80;80.80;100370.00;5036837;28;20049;-44
2022/12/14 11:39:22;;;;;;;4.63;0.98;;;;;;;2.73;80.69;100375.03;5025536;28;20050;-41
2022/12/14 11:42:03;;;;;;;3.63;1.10;;;;;;;2.68;81.04;100377.84;5045464;28;20478;-41
2022/12/14 11:44:34;;;;;;;9.63;1.00;;;;;;;2.65;80.90;100372.97;5042750;28;20473;-42
2022/12/14 11:47:07;;;;;;;8.90;1.50;;;;;;;2.61;80.92;100365.69;5048103;28;20041;-45
2022/12/14 11:49:43;;;;;;;8.52;2.22;;;;;;;2.56;80.97;100368.53;5043722;28;20403;-47
2022/12/14 11:52:11;;;;;;;1.80;0.73;;;;;;;2.51;80.90;100366.72;5032020;28;20107;-43
2022/12/14 11:54:41;;;;;;;3.17;1.23;;;;;;;2.46;80.74;100373.06;5046602;28;20045;-44
2022/12/14 11:57:23;;;;;;;4.65;1.00;;;;;;;2.46;81.14;100375.00;5048118;28;20446;-43
2022/12/14 12:00:20;;;;;;;2.40;0.73;;;;;;;2.47;80.86;100382.06;5044154;28;20049;-47
2022/12/14 12:02:52;;;;;;;12.35;2.10;;;;;;;2.50;80.93;100369.72;5047488;28;20084;-45
2022/12/14 12:05:22;;;;;;;14.73;1.23;;;;;;;2.51;81.08;100374.91;5048580;28;20425;-42
2022/12/14 12:07:49;;;;;;;4.10;0.80;;;;;;;2.57;81.13;100370.16;5048042;28;20451;-46
2022/12/14 12:10:18;;;;;;;6.28;1.00;;;;;;;2.68;81.14;100375.13;5027715;28;20092;-43
2022/12/14 12:12:51;;;;;;;2.92;0.90;;;;;;;2.83;80.84;100369.34;5046684;28;20051;-42
2022/12/14 12:15:31;;;;;;;1.60;0.70;;;;;;;2.94;80.32;100365.31;5045217;28;20052;-41
2022/12/14 12:18:04;;;;;;;2.67;0.57;;;;;;;3.00;80.10;100363.28;5046627;28;20154;-43
2022/12/14 12:20:38;;;;;;;2.85;0.70;;;;;;;3.00;79.90;100364.09;5048093;28;20049;-49